Latest Weather Observations for Albion Park

IDN60801

Issued at 9:05 am EST Saturday 23 August 2014 (issued every 30 minutes, with the page automatically refreshed every 10 minutes)

About weather observations | Map of weather stations | Latest weather observations for NSW | Other Formats
Station Details ID: 068241 Name: WOLLONGONG AIRPORT Lat: -34.56 Lon: 150.79 Height: 8.0 m
Data from the previous 72 hours. | See also: Recent months at Albion Park
Date/Time
EST
Temp
°C
App
Temp
°C
Dew
Point
Rel
Hum
%
Delta-T
°C
Wind Press
QNH
hPa
Press
MSL
hPa
Rain
since 9 am
mm
Dir
 
Spd
km/h
Gust
km/h
Spd
kts
Gust
kts
23/08:30am 12.5 13.2 12.3 99 0.1 NW 0 0 0 0 1031.6 - 7.0
23/08:00am 12.2 11.7 12.2 100 0.0 W 6 7 3 4 1031.5 1031.5 7.0
23/07:30am 10.0 10.0 9.9 99 0.1 CALM 0 0 0 0 1031.3 - 7.0
23/07:00am 9.1 8.9 9.0 99 0.0 CALM 0 6 0 3 1030.9 1030.9 7.0
23/06:30am 9.1 7.2 9.0 99 0.0 WNW 9 11 5 6 1030.4 - 7.0
23/06:17am 9.6 9.1 9.5 99 0.0 WNW 2 9 1 5 1030.4 - 7.0
23/06:05am 9.4 9.3 9.3 99 0.0 CALM 0 0 0 0 1030.4 - 7.0
23/06:00am 9.4 9.3 9.3 99 0.0 WNW 0 0 0 0 1030.3 1030.3 7.0
23/05:30am 10.0 10.0 9.9 99 0.1 CALM 0 0 0 0 1030.0 - 7.0
23/05:00am 10.8 9.7 10.6 99 0.1 WSW 7 9 4 5 1029.8 1029.8 7.0
23/04:30am 10.7 9.6 10.5 99 0.1 WNW 7 9 4 5 1029.7 - 7.0
23/04:00am 10.9 10.0 10.7 99 0.1 SW 6 7 3 4 1029.6 1029.6 7.0
23/03:30am 11.0 11.3 10.8 99 0.1 CALM 0 4 0 2 1029.8 - 7.0
23/03:00am 10.6 9.4 10.4 99 0.1 NW 7 11 4 6 1030.0 1030.0 7.0
23/02:30am 11.1 11.4 10.9 99 0.1 CALM 0 6 0 3 1030.0 - 7.0
23/02:08am 11.1 10.1 10.9 99 0.1 W 7 9 4 5 1030.2 - 7.0
23/02:00am 10.8 9.7 10.6 99 0.1 W 7 9 4 5 1030.2 1030.2 7.0
23/01:30am 10.4 9.4 10.2 99 0.1 WSW 6 7 3 4 1030.5 - 7.0
23/01:14am 10.8 11.0 10.6 99 0.1 CALM 0 0 0 0 1030.7 - 7.0
23/01:00am 10.9 10.4 10.7 99 0.1 WSW 4 7 2 4 1030.6 1030.6 7.0
23/12:30am 11.7 10.8 11.5 99 0.1 W 7 9 4 5 1030.7 - 6.8
23/12:00am 11.9 10.7 11.7 99 0.1 NNW 9 13 5 7 1031.1 1031.1 6.6
 
Date/Time
EST
Temp
°C
App
Temp
°C
Dew
Point
Rel
Hum
%
Delta-T
°C
Wind Press
QNH
hPa
Press
MSL
hPa
Rain
since 9 am
mm
Dir
 
Spd
km/h
Gust
km/h
Spd
kts
Gust
kts
22/11:55pm 11.9 10.3 11.7 99 0.1 NNW 11 13 6 7 1031.1 - 6.6
22/11:30pm 11.6 11.3 11.4 99 0.1 WSW 4 9 2 5 1031.1 - 6.6
22/11:17pm 11.6 10.7 11.4 99 0.1 W 7 9 4 5 1031.1 - 6.6
22/11:00pm 11.5 10.8 11.3 99 0.1 W 6 9 3 5 1031.2 1031.2 6.6
22/10:30pm 11.8 10.6 11.6 99 0.1 WNW 9 13 5 7 1031.3 - 6.6
22/10:05pm 11.8 11.0 11.6 99 0.1 WSW 7 9 4 5 1031.3 - 6.6
22/10:00pm 11.8 11.0 11.6 99 0.1 WSW 7 9 4 5 1031.3 1031.3 6.6
22/09:51pm 11.8 11.0 11.6 99 0.1 WSW 7 9 4 5 1031.3 - 6.4
22/09:30pm 11.5 10.8 11.3 99 0.1 WSW 6 9 3 5 1031.3 - 6.4
22/09:00pm 11.5 10.6 11.3 99 0.1 W 7 11 4 6 1031.2 1031.2 6.4
22/08:30pm 11.5 10.2 11.3 99 0.1 WSW 9 13 5 7 1031.2 - 6.4
22/08:21pm 11.9 10.3 11.7 99 0.1 W 11 13 6 7 1031.2 - 6.2
22/08:00pm 12.5 12.1 12.3 99 0.1 SW 6 9 3 5 1031.2 1031.2 6.0
22/07:46pm 12.3 11.8 12.1 99 0.1 SW 6 7 3 4 1031.3 - 3.0
22/07:30pm 11.7 11.0 11.5 99 0.1 SW 6 9 3 5 1031.1 - 2.6
22/07:00pm 12.1 11.3 11.8 98 0.2 S 7 11 4 6 1030.8 1030.8 2.6
22/06:36pm 12.5 11.9 12.2 98 0.2 S 7 9 4 5 1030.7 - 2.6
22/06:30pm 12.6 11.9 12.1 97 0.3 S 7 9 4 5 1030.6 - 2.6
22/06:26pm 12.9 12.6 12.6 98 0.2 S 6 9 3 5 1030.6 - 2.6
22/06:23pm 13.0 12.7 12.7 98 0.2 S 6 9 3 5 1030.6 - 2.4
22/06:11pm 12.9 12.5 12.4 97 0.3 S 6 7 3 4 1030.6 - 2.2
22/06:00pm 12.7 12.2 12.2 97 0.3 S 6 7 3 4 1030.5 1030.5 2.2
22/05:30pm 13.2 12.7 12.6 96 0.3 S 7 7 4 4 1030.2 - 2.2
22/05:00pm 13.5 13.0 12.7 95 0.4 S 7 9 4 5 1030.0 1030.0 2.2
22/04:30pm 13.8 12.6 12.9 94 0.5 S 11 17 6 9 1029.8 - 2.2
22/04:10pm 14.1 13.1 13.3 95 0.4 S 11 15 6 8 1029.7 - 2.2
22/04:00pm 14.2 12.7 13.2 94 0.5 S 13 24 7 13 1029.8 1029.8 2.2
22/03:50pm 14.3 12.5 13.2 93 0.6 S 15 22 8 12 1029.8 - 2.2
22/03:30pm 14.6 11.7 13.0 90 0.9 S 20 28 11 15 1029.6 - 1.2
22/03:26pm 14.9 11.7 13.1 89 1.0 S 22 30 12 16 1029.6 - 1.2
22/03:00pm 14.8 12.4 12.7 87 1.1 S 17 26 9 14 1029.6 1029.6 1.2
22/02:52pm 15.5 12.6 12.4 82 1.7 S 19 26 10 14 1029.7 - 0.6
22/02:30pm 16.2 13.5 11.6 74 2.5 SSE 17 24 9 13 1029.8 - 0.0
22/02:00pm 17.0 14.1 11.1 68 3.2 SSE 17 28 9 15 1029.7 1029.7 0.0
22/01:30pm 16.9 13.2 11.4 70 3.0 S 22 30 12 16 1029.8 - 0.0
22/01:00pm 16.8 13.9 11.1 69 3.0 SSE 17 20 9 11 1030.1 1030.1 0.0
22/12:30pm 17.0 15.0 11.5 70 3.0 SE 13 20 7 11 1030.7 - 0.0
22/12:00pm 16.6 12.8 11.1 70 2.9 S 22 28 12 15 1031.2 1031.2 0.0
22/11:30am 16.3 13.1 11.2 72 2.7 S 19 24 10 13 1031.6 - 0.0
22/11:14am 16.1 13.7 11.5 74 2.5 SE 15 22 8 12 1031.8 - 0.0
22/11:00am 16.2 13.4 11.2 72 2.7 S 17 26 9 14 1031.9 1031.9 0.0
22/10:35am 15.4 12.9 11.0 75 2.3 SSE 15 20 8 11 1032.3 - 0.0
22/10:33am 15.4 12.8 10.6 73 2.5 SSE 15 20 8 11 1032.3 - 0.0
22/10:30am 15.8 13.3 11.2 74 2.5 SSE 15 20 8 11 1032.3 - 0.0
22/10:15am 15.7 12.5 11.3 75 2.4 SSW 19 20 10 11 1032.3 - 0.0
22/10:13am 15.7 12.5 11.3 75 2.4 SSW 19 20 10 11 1032.4 - 0.0
22/10:00am 15.4 12.3 10.4 72 2.6 SE 17 22 9 12 1032.4 1032.4 0.0
22/09:38am 16.4 14.3 11.1 71 2.8 SSE 13 22 7 12 1032.3 - 0.0
22/09:30am 16.2 14.2 11.6 74 2.5 SSE 13 20 7 11 1032.4 - 0.0
22/09:00am 15.4 12.8 10.8 74 2.4 S 15 20 8 11 1032.3 1032.3 1.0
22/08:30am 14.0 13.0 11.0 82 1.6 SW 7 9 4 5 1032.0 - 1.0
22/08:00am 12.0 10.7 11.2 95 0.4 SW 9 9 5 5 1031.8 1031.8 1.0
22/07:30am 10.4 8.8 10.2 99 0.1 SW 9 11 5 6 1031.6 - 1.0
22/07:00am 8.9 6.5 8.8 99 0.0 SW 11 15 6 8 1031.4 1031.4 1.0
22/06:30am 7.8 5.2 7.7 99 0.0 SW 11 13 6 7 1031.0 - 1.0
22/06:00am 8.7 6.3 8.6 99 0.0 SW 11 13 6 7 1030.7 1030.7 1.0
22/05:30am 8.5 6.4 8.4 99 0.0 SW 9 11 5 6 1030.5 - 1.0
22/05:00am 9.1 6.8 9.0 99 0.0 SW 11 13 6 7 1030.3 1030.3 1.0
22/04:30am 9.4 7.8 8.9 97 0.2 SW 7 9 4 5 1030.4 - 1.0
22/04:00am 10.1 9.7 9.8 98 0.1 SW 2 7 1 4 1030.2 1030.2 1.0
22/03:30am 9.8 9.0 9.5 98 0.1 SW 4 6 2 3 1030.1 - 1.0
22/03:00am 10.3 8.3 10.1 99 0.1 SW 11 13 6 7 1030.2 1030.2 1.0
22/02:30am 10.5 9.5 10.2 98 0.2 SSW 6 11 3 6 1030.4 - 1.0
22/02:00am 10.6 9.0 10.3 98 0.2 SSW 9 11 5 6 1030.6 1030.6 0.8
22/01:57am 10.7 9.2 10.4 98 0.2 SSW 9 11 5 6 1030.6 - 0.8
22/01:39am 10.8 9.7 10.5 98 0.2 SSW 7 13 4 7 1030.9 - 0.6
22/01:30am 10.5 9.3 10.2 98 0.2 SSW 7 11 4 6 1030.9 - 0.4
22/01:00am 9.4 7.1 8.9 97 0.2 SSW 11 11 6 6 1031.0 1031.0 0.4
22/12:30am 10.4 9.3 9.8 96 0.3 SSW 6 9 3 5 1031.1 - 0.4
22/12:00am 10.2 8.8 9.7 97 0.2 SSW 7 7 4 4 1031.0 1031.0 0.4
 
Date/Time
EST
Temp
°C
App
Temp
°C
Dew
Point
Rel
Hum
%
Delta-T
°C
Wind Press
QNH
hPa
Press
MSL
hPa
Rain
since 9 am
mm
Dir
 
Spd
km/h
Gust
km/h
Spd
kts
Gust
kts
21/11:30pm 10.0 7.8 9.2 95 0.4 SSW 11 15 6 8 1031.0 - 0.4
21/11:00pm 10.4 9.3 9.9 97 0.2 WSW 6 9 3 5 1031.0 1031.0 0.4
21/10:30pm 10.9 9.6 10.1 95 0.4 WSW 7 7 4 4 1030.9 - 0.4
21/10:00pm 12.1 10.8 11.3 95 0.4 W 9 13 5 7 1031.1 1031.1 0.4
21/09:30pm 12.8 11.9 11.5 92 0.7 N 7 9 4 5 1031.1 - 0.4
21/09:00pm 12.5 11.4 10.6 88 1.0 W 7 11 4 6 1030.9 1030.9 0.4
21/08:30pm 12.4 10.4 10.0 85 1.2 WSW 11 11 6 6 1030.7 - 0.2
21/08:00pm 13.0 11.9 10.7 86 1.2 S 7 9 4 5 1030.6 1030.6 0.2
21/07:30pm 13.3 12.2 10.7 84 1.4 S 7 11 4 6 1030.4 - 0.2
21/07:00pm 13.4 11.6 10.8 84 1.4 S 11 15 6 8 1030.1 1030.1 0.2
21/06:30pm 13.2 11.7 10.6 84 1.4 S 9 13 5 7 1029.8 - 0.2
21/06:00pm 13.1 12.0 10.6 85 1.3 S 7 9 4 5 1029.6 1029.6 0.2
21/05:30pm 13.3 11.6 9.9 80 1.7 S 9 11 5 6 1029.2 - 0.2
21/05:00pm 14.1 12.1 10.1 77 2.1 S 11 15 6 8 1029.0 1029.0 0.2
21/04:30pm 14.7 12.3 10.1 74 2.4 S 13 19 7 10 1028.6 - 0.2
21/04:00pm 15.0 11.4 10.0 72 2.6 SSE 19 26 10 14 1028.4 1028.4 0.2
21/03:30pm 14.9 10.8 10.1 73 2.5 S 22 35 12 19 1028.2 - 0.2
21/03:00pm 15.4 11.9 10.2 71 2.7 SSE 19 28 10 15 1028.0 1028.0 0.2
21/02:30pm 16.1 13.0 10.2 68 3.1 S 17 26 9 14 1028.0 - 0.2
21/02:00pm 15.9 12.3 9.8 67 3.2 S 19 26 10 14 1028.1 1028.1 0.2
21/01:30pm 16.0 12.4 9.9 67 3.2 S 19 26 10 14 1028.2 - 0.2
21/01:00pm 15.5 12.3 9.8 69 2.9 S 17 24 9 13 1028.6 1028.6 0.2
21/12:30pm 15.7 13.0 10.5 71 2.7 S 15 24 8 13 1029.0 - 0.2
21/12:00pm 15.1 12.1 10.5 74 2.4 S 17 22 9 12 1029.4 1029.4 0.2
21/11:35am 14.9 10.9 10.3 74 2.4 S 22 28 12 15 1029.6 - 0.2
21/11:30am 15.3 12.0 11.5 78 2.0 S 20 24 11 13 1029.6 - 0.2
21/11:13am 14.9 13.5 10.9 77 2.1 SW 9 17 5 9 1029.7 - 0.2
21/11:00am 14.3 13.5 10.9 80 1.8 WSW 6 13 3 7 1029.8 1029.8 0.2
21/10:30am 13.5 11.9 11.4 87 1.1 SSW 11 17 6 9 1030.0 - 0.2
21/10:24am 13.3 11.7 11.5 89 1.0 SSW 11 13 6 7 1030.0 - 0.2
21/10:00am 12.4 11.1 11.1 92 0.7 SSW 9 11 5 6 1030.3 1030.3 0.2
21/09:59am 12.5 11.2 11.2 92 0.7 SSW 9 11 5 6 1030.3 - 0.2
21/09:46am 12.3 10.5 11.0 92 0.7 SSW 11 13 6 7 1030.3 - 0.0
21/09:30am 12.9 10.7 10.8 87 1.1 S 13 20 7 11 1030.1 - 0.0
21/09:00am 12.8 10.8 10.3 85 1.3 SW 11 13 6 7 1029.8 1029.8 0.4
21/08:38am 12.1 10.6 10.7 91 0.7 SW 9 13 5 7 1029.8 - 0.4
21/08:30am 11.7 10.1 10.3 91 0.7 SW 9 11 5 6 1029.8 - 0.4
21/08:23am 11.7 10.5 10.3 91 0.7 SW 7 11 4 6 1029.8 - 0.4
21/08:05am 11.8 10.5 10.0 89 0.9 SW 7 11 4 6 1029.6 - 0.2
21/08:04am 11.8 10.1 10.0 89 0.9 SW 9 11 5 6 1029.6 - 0.2
21/08:00am 11.8 10.5 9.9 88 1.0 SW 7 11 4 6 1029.6 1029.6 0.0
21/07:30am 11.4 9.7 9.8 90 0.8 SSW 9 13 5 7 1029.2 - 0.0
21/07:04am 11.1 9.4 10.0 93 0.6 SSW 9 13 5 7 1029.0 - 0.0
21/07:00am 10.8 9.1 9.9 94 0.5 SSW 9 11 5 6 1029.0 1029.0 0.0
21/06:46am 10.4 8.6 9.6 95 0.4 SSW 9 11 5 6 1028.8 - 0.0
21/06:30am 10.0 7.6 8.8 92 0.6 SSW 11 13 6 7 1028.6 - 0.0
21/06:00am 10.7 8.4 9.1 90 0.8 SSW 11 17 6 9 1028.2 1028.2 0.0
21/05:30am 11.5 8.2 9.6 88 1.0 S 17 22 9 12 1027.9 - 0.0
21/05:00am 10.1 8.6 8.5 90 0.8 SSW 6 9 3 5 1027.7 1027.7 0.0
21/04:30am 10.3 8.3 8.7 90 0.8 SSW 9 11 5 6 1027.7 - 0.0
21/04:00am 11.0 7.6 9.3 89 0.8 S 17 24 9 13 1027.7 1027.7 0.0
21/03:30am 12.0 9.2 8.5 79 1.7 S 13 17 7 9 1027.5 - 0.0
21/03:00am 12.3 9.1 8.4 77 1.9 SSW 15 22 8 12 1027.3 1027.3 0.0
21/02:30am 11.7 8.9 8.6 81 1.5 SSW 13 17 7 9 1027.2 - 0.0
21/02:00am 9.2 7.1 6.5 83 1.2 WSW 7 9 4 5 1027.3 1027.3 0.0
21/01:30am 8.8 6.6 6.2 84 1.2 WSW 7 9 4 5 1027.3 - 0.0
21/01:00am 7.4 5.2 6.0 91 0.6 WSW 7 11 4 6 1027.6 1027.6 0.0
21/12:30am 8.0 6.3 6.0 87 0.9 W 4 7 2 4 1027.6 - 0.0
21/12:00am 9.1 7.1 6.9 86 1.0 WNW 7 9 4 5 1027.5 1027.5 0.0
 
Date/Time
EST
Temp
°C
App
Temp
°C
Dew
Point
Rel
Hum
%
Delta-T
°C
Wind Press
QNH
hPa
Press
MSL
hPa
Rain
since 9 am
mm
Dir
 
Spd
km/h
Gust
km/h
Spd
kts
Gust
kts
20/11:30pm 7.9 5.4 6.4 90 0.7 W 9 13 5 7 1027.5 - 0.0
20/11:00pm 7.3 4.3 6.1 92 0.5 W 11 11 6 6 1027.6 1027.6 0.0
20/10:30pm 7.4 5.3 5.9 90 0.7 W 6 9 3 5 1027.7 - 0.0
20/10:00pm 8.6 5.8 7.1 90 0.7 W 11 13 6 7 1027.8 1027.8 0.0
20/09:30pm 8.1 5.6 6.4 89 0.8 W 9 13 5 7 1027.9 - 0.0
20/09:00pm 9.1 6.6 6.5 84 1.2 WSW 9 13 5 7 1027.7 1027.7 0.0
20/08:30pm 9.1 5.8 6.5 84 1.2 SSW 13 15 7 8 1027.5 - 0.0
20/08:00pm 8.9 6.5 6.9 87 0.9 SSW 9 13 5 7 1027.3 1027.3 0.0
20/07:30pm 9.2 6.8 6.8 85 1.1 SSW 9 13 5 7 1027.2 - 0.0
20/07:00pm 10.6 8.5 6.7 77 1.8 SSW 7 13 4 7 1027.0 1027.0 0.0
20/06:30pm 12.2 9.8 6.9 70 2.5 SSW 9 13 5 7 1026.5 - 0.0
20/06:00pm 12.2 10.2 6.9 70 2.5 S 7 11 4 6 1026.2 1026.2 0.0
20/05:30pm 13.2 10.1 7.2 67 2.9 S 13 19 7 10 1025.8 - 0.0
20/05:00pm 14.3 10.8 7.4 63 3.4 S 15 24 8 13 1025.6 1025.6 0.0
20/04:30pm 15.0 11.4 6.8 58 4.0 SSE 15 24 8 13 1025.2 - 0.0
20/04:00pm 15.1 11.0 6.4 56 4.2 SSE 17 24 9 13 1024.9 1024.9 0.0
20/03:30pm 15.3 12.0 6.6 56 4.2 SSE 13 20 7 11 1024.8 - 0.0
20/03:00pm 15.1 11.3 5.9 54 4.4 SE 15 24 8 13 1024.6 1024.6 0.0
20/02:30pm 15.5 11.4 6.0 53 4.6 SSE 17 26 9 14 1024.4 - 0.0
20/02:00pm 15.5 11.7 6.0 53 4.6 SSE 15 22 8 12 1024.4 1024.4 0.0
20/01:30pm 15.9 11.4 6.1 52 4.7 S 19 26 10 14 1024.3 - 0.0
20/01:00pm 15.4 10.9 5.9 53 4.5 S 19 26 10 14 1024.5 1024.5 0.0
20/12:30pm 15.6 11.5 6.3 54 4.5 SSE 17 28 9 15 1024.8 - 0.0
20/12:00pm 15.5 11.5 6.8 56 4.2 S 17 24 9 13 1025.1 1025.1 0.0
20/11:30am 15.0 10.8 5.8 54 4.4 S 17 30 9 16 1025.5 - 0.0
20/11:00am 14.5 9.3 5.3 54 4.3 S 22 32 12 17 1025.5 1025.5 0.0
20/10:30am 14.7 9.7 6.3 57 4.0 S 22 35 12 19 1025.6 - 0.0
20/10:00am 13.7 9.0 5.1 56 4.0 SSW 19 24 10 13 1025.5 1025.5 0.0
20/09:30am 13.9 9.1 5.8 58 3.8 S 20 30 11 16 1025.6 - 0.0

Other Formats:

Comma delimited format used in spreadsheet applications
http://www.bom.gov.au/fwo/IDN60801/IDN60801.95748.axf

JavaScript Object Notation format (JSON) in row-major order
http://www.bom.gov.au/fwo/IDN60801/IDN60801.95748.json